Flight Track Log - Related Links

Times and Time Zones

All times are in EDT time to prevent confusion due to time zone crossing. See the FLG4222 flight status page for this flight to view local times or setup timezone preferences in your user account.

Time Position Orientation Groundspeed Altitude Reporting Facility
EDT Latitude Longitude Course Direction KTS MPH feet Rate Location/Type
Sun 11:52:00 AM 42.1636 -75.9689 289° West 448 516 3,600  Level New York Center
Sun 11:53:42 AM 42.1933 -76.1225 285° West 256 295 6,200 1,793 Climbing Cleveland Center
Sun 11:54:44 AM 42.2206 -76.2139 292° West 269 310 8,500 2,032 Climbing Cleveland Center
Sun 11:55:46 AM 42.2517 -76.3186 292° West 281 323 10,400 1,500 Climbing Cleveland Center
Sun 11:56:48 AM 42.2886 -76.4356 293° West 318 366 11,600 1,161 Climbing Cleveland Center
Sun 11:57:00 AM 42.2309 -76.7462 289° West  Level Estimated
Sun 11:57:50 AM 42.3258 -76.5608 292° West 352 405 12,800  Level Cleveland Center
Sun 11:58:51 AM 42.3667 -76.6914 293° West 376 433 14,000 1,171 Climbing Cleveland Center
Sun 11:59:53 AM 42.4064 -76.8267 292° West 385 443 15,200 1,403 Climbing Cleveland Center
Sun 12:00:55 PM 42.4550 -76.9903 292° West 392 451 16,900 1,355 Climbing Cleveland Center
Sun 12:01:57 PM 42.4956 -77.1278 292° West 395 455 18,000 1,113 Climbing Cleveland Center
Sun 12:02:59 PM 42.5364 -77.2661 292° West 395 455 19,200 968 Climbing Cleveland Center
Sun 12:04:01 PM 42.5772 -77.4067 292° West 400 460 20,000 390 Climbing Cleveland Center
Sun 12:05:02 PM 42.6214 -77.5569 292° West 418 481 20,000 585 Level Cleveland Center
Sun 12:06:04 PM 42.6639 -77.7067 291° West 425 489 21,200 1,694 Climbing Cleveland Center
Sun 12:07:06 PM 42.6947 -77.8631 285° West 407 468 23,500 1,887 Climbing Cleveland Center
Sun 12:08:08 PM 42.6969 -78.0050 271° West 385 443 25,100 1,258 Climbing Cleveland Center
Sun 12:09:10 PM 42.6992 -78.1467 271° West 377 434 26,100 1,065 Climbing Cleveland Center
Sun 12:10:12 PM 42.7025 -78.3219 272° West 386 444 27,300 919 Climbing Cleveland Center
Sun 12:11:14 PM 42.7042 -78.4667 271° West 385 443 28,000 339 Climbing Cleveland Center
Sun 12:12:16 PM 42.7064 -78.6142 271° West 393 452 28,000  Level Cleveland Center
Sun 12:13:18 PM 42.7075 -78.7589 271° West 385 443 28,000  Level Cleveland Center
Sun 12:14:20 PM 42.7089 -78.9042 271° West 388 447 28,000  Level Cleveland Center
Sun 12:15:22 PM 42.7103 -79.0508 271° West 388 447 28,000  Level Cleveland Center
Sun 12:16:25 PM 42.7114 -79.2269 271° West 389 448 28,000  Level Cleveland Center
Sun 12:17:27 PM 42.7122 -79.3736 270° West 388 447 28,000  Level Cleveland Center
Sun 12:18:29 PM 42.7117 -79.5211 270° West 391 450 28,000  Level Cleveland Center
Sun 12:19:31 PM 42.7117 -79.6733 270° West 402 463 28,000  Level Cleveland Center
Sun 12:20:33 PM 42.7128 -79.8294 271° West 412 474 28,000  Level Cleveland Center
Sun 12:21:35 PM 42.7114 -79.9939 269° West 420 483 28,000  Level Cleveland Center
Sun 12:22:37 PM 42.7103 -80.1522 270° West 415 478 28,000  Level Cleveland Center
Sun 12:23:39 PM 42.7100 -80.3381 270° West 418 481 28,000  Level Cleveland Center
Sun 12:24:41 PM 42.7094 -80.4911 270° West 404 465 28,000  Level Cleveland Center
Sun 12:25:43 PM 42.7081 -80.6456 269° West 405 466 28,000  Level Cleveland Center
Sun 12:26:45 PM 42.7069 -80.8006 269° West 407 468 28,000 -339 Level Cleveland Center
Sun 12:27:47 PM 42.6986 -80.9497 266° West 397 457 27,300 -823 Descending Cleveland Center
Sun 12:28:49 PM 42.6836 -81.0892 262° West 376 433 26,300 -1,065 Descending Cleveland Center
Sun 12:29:51 PM 42.6661 -81.2392 261° West 349 402 25,100 -1,065 Descending Cleveland Center
Sun 12:30:53 PM 42.6508 -81.3725 261° West 353 406 24,100 -532 Descending Cleveland Center
Sun 12:31:55 PM 42.6364 -81.5031 261° West 349 402 24,000 -672 Descending Cleveland Center
Sun 12:32:58 PM 42.6200 -81.6283 260° West 338 389 22,700 -1,344 Descending Cleveland Center
Sun 12:34:00 PM 42.6058 -81.7528 261° West 332 382 21,200 -1,452 Descending Cleveland Center
Sun 12:35:02 PM 42.5919 -81.8717 261° West 326 375 19,700 -1,452 Descending Cleveland Center
Sun 12:36:04 PM 42.5786 -81.9872 261° West 315 362 18,200 -1,548 Descending Cleveland Center
Sun 12:37:06 PM 42.5597 -82.1253 260° West 310 357 16,500 -1,576 Descending Cleveland Center
Sun 12:37:43 PM 42.5531 -82.1956 263° West 304 350 15,600 -1,452 Descending Cleveland Center
Sun 12:38:08 PM 42.5467 -82.2344 257° West 300 345 15,000 -1,527 Descending Cleveland Center
Sun 12:38:38 PM 42.5400 -82.2958 262° West 294 338 14,200 -1,452 Descending Cleveland Center
Sun 12:39:10 PM 42.5328 -82.3425 258° West 293 337 13,500 -1,452 Descending Cleveland Center
Sun 12:39:40 PM 42.5261 -82.4044 262° West 290 334 12,700 -1,355 Descending Cleveland Center
Sun 12:40:12 PM 42.5194 -82.4492 259° West 289 333 12,100 -689 Descending Cleveland Center
Sun 12:40:41 PM 42.5122 -82.5131 261° West 278 320 12,000 -97 Descending Cleveland Center
Sun 12:41:14 PM 42.5022 -82.5489 249° West 279 321 12,000 -295 Level Cleveland Center
Sun 12:41:42 PM 42.4750 -82.5961 232° Southwest 247 284 11,700 -774 Descending Cleveland Center
Sun 12:42:16 PM 42.4589 -82.6217 229° Southwest 250 288 11,200 -1,161 Descending Cleveland Center
Sun 12:42:44 PM 42.4364 -82.6703 238° Southwest 239 275 10,500 -1,355 Descending Cleveland Center
Sun 12:43:18 PM 42.4150 -82.7081 233° Southwest 236 272 9,800 -1,082 Descending Cleveland Center
Sun 12:43:45 PM 42.4019 -82.7392 240° Southwest 225 259 9,400 -871 Descending Cleveland Center
Sun 12:44:20 PM 42.3822 -82.7767 235° Southwest 224 258 8,900 -1,091 Descending Cleveland Center
Sun 12:44:40 PM 42.3786 -82.8011 259° West 193 222 8,400 -1,355 Descending Cleveland Center
Sun 12:45:22 PM 42.3700 -82.8467 256° West 199 229 7,500 -1,254 Descending Cleveland Center
Sun 12:45:47 PM 42.3706 -82.8847 271° West 203 234 7,000 -484 Descending Cleveland Center
Sun 12:46:24 PM 42.3733 -82.9192 276° West 192 221 7,000  Level Cleveland Center
Sun 12:46:49 PM 42.3794 -82.9594 282° West 196 226 7,000  Level Cleveland Center
Sun 12:47:26 PM 42.3836 -82.9925 280° West 198 228 7,000  Level Cleveland Center
Sun 12:47:50 PM 42.4156 -83.0094 339° North 227 261 7,000  Level Cleveland Center
Sun 12:48:28 PM 42.4392 -82.9972 21° North 217 250 7,000  Level Cleveland Center
Sun 12:48:51 PM 42.4700 -82.9828 19° North 202 232 7,000  Level Cleveland Center
Sun 12:49:30 PM 42.5011 -82.9669 21° North 202 232 7,000  Level Cleveland Center
Sun 12:49:47 PM 42.5164 -82.9778 332° Northwest 191 220 7,000 -387 Level Cleveland Center
Sun 12:50:32 PM 42.5272 -83.0186 290° West 179 206 6,600 -590 Descending Cleveland Center
Sun 12:50:48 PM 42.5264 -83.0414 267° West 163 188 6,400 -571 Descending Cleveland Center
Sun 12:51:35 PM 42.5156 -83.0769 248° West 164 189 6,000 -393 Descending Cleveland Center
Sun 12:51:49 PM 42.5075 -83.0956 240° Southwest 164 189 6,000  Level Cleveland Center
Sun 12:52:37 PM 42.4906 -83.1269 234° Southwest 161 185 6,000  Level Cleveland Center
Sun 12:52:44 PM 42.4811 -83.1400 226° Southwest 160 184 6,000  Level Cleveland Center
Sun 12:53:39 PM 42.4533 -83.1589 207° Southwest 160 184 6,000 -329 Level Cleveland Center
Sun 12:53:57 PM 42.4344 -83.1761 214° Southwest 159 183 5,600 -871 Descending Cleveland Center
Sun 12:54:41 PM 42.4142 -83.1883 204° Southwest 162 186 5,100 -984 Descending Cleveland Center
Sun 12:54:58 PM 42.3947 -83.2044 211° Southwest 160 184 4,600 -1,065 Descending Cleveland Center
Sun 12:55:43 PM 42.3664 -83.2231 206° Southwest 161 185 4,000 -873 Descending Cleveland Center
Sun 12:55:53 PM 42.3592 -83.2306 218° Southwest 167 192 3,800 -930 Descending Cleveland Center
Sun 12:56:54 PM 42.3167 -83.2642 210° Southwest 165 190 2,900 -789 Descending Cleveland Center
Sun 12:57:47 PM 42.2889 -83.2811 204° Southwest 156 180 2,300 -689 Descending Cleveland Center
Sun 12:57:55 PM 42.2833 -83.2878 222° Southwest 131 151 2,200 -677 Descending Cleveland Center
Sun 12:58:49 PM 42.2569 -83.3044 205° Southwest 140 161 1,600 -787 Descending Cleveland Center
Sun 12:58:56 PM 42.2503 -83.3114 218° Southwest 135 155 1,400 -581 Descending Cleveland Center
Sun 12:59:51 PM 42.2200 -83.3319 207° Southwest 138 159 1,000 -436 Descending Cleveland Center

Login

Don't have an account? Register now (free) for customized features, flight alerts, and more!